createdAt,value
2023-07-31T00:00:34.240Z,22.77
2023-07-31T00:01:34.324Z,22.77
2023-07-31T00:02:34.274Z,22.78
2023-07-31T00:03:34.236Z,22.75
2023-07-31T00:04:34.656Z,22.77
2023-07-31T00:05:34.174Z,22.77
2023-07-31T00:06:34.178Z,22.75
2023-07-31T00:07:34.162Z,22.75
2023-07-31T00:08:34.156Z,22.78
2023-07-31T00:09:34.149Z,22.78
2023-07-31T00:10:34.110Z,22.78
2023-07-31T00:11:34.144Z,22.78
2023-07-31T00:12:34.227Z,22.75
2023-07-31T00:13:34.071Z,22.74
2023-07-31T00:14:34.045Z,22.77
2023-07-31T00:15:34.048Z,22.77
2023-07-31T00:16:34.078Z,22.77
2023-07-31T00:17:34.070Z,22.74
2023-07-31T00:18:34.025Z,22.74
2023-07-31T00:19:33.997Z,22.75
2023-07-31T00:20:33.971Z,22.74
2023-07-31T00:21:33.971Z,22.71
2023-07-31T00:22:33.934Z,22.71
2023-07-31T00:23:33.951Z,22.72
2023-07-31T00:24:33.921Z,22.72
2023-07-31T00:25:33.908Z,22.75
2023-07-31T00:26:33.910Z,22.77
2023-07-31T00:27:33.899Z,22.74
2023-07-31T00:28:33.958Z,22.75
2023-07-31T00:29:33.900Z,22.77
2023-07-31T00:30:34.126Z,22.75
2023-07-31T00:31:33.861Z,22.72
2023-07-31T00:32:33.859Z,22.72
2023-07-31T00:33:33.807Z,22.74
2023-07-31T00:34:33.786Z,22.72
2023-07-31T00:35:33.817Z,22.72
2023-07-31T00:36:33.761Z,22.72
2023-07-31T00:37:33.747Z,22.72
2023-07-31T00:38:33.739Z,22.74
2023-07-31T00:39:33.739Z,22.74
2023-07-31T00:40:33.718Z,22.72
2023-07-31T00:41:33.689Z,22.74
2023-07-31T00:42:33.993Z,22.74
2023-07-31T00:43:33.688Z,22.72
2023-07-31T00:44:33.661Z,22.75
2023-07-31T00:45:33.750Z,22.72
2023-07-31T00:46:33.635Z,22.77
2023-07-31T00:47:33.641Z,22.75
2023-07-31T00:48:33.634Z,22.74
2023-07-31T00:49:33.598Z,22.75
2023-07-31T00:50:33.611Z,22.75
2023-07-31T00:51:33.556Z,22.72
2023-07-31T00:52:33.559Z,22.71
2023-07-31T00:53:33.565Z,22.72
2023-07-31T00:54:33.542Z,22.67
2023-07-31T00:55:33.524Z,22.68
2023-07-31T00:56:33.559Z,22.67
2023-07-31T00:57:33.487Z,22.68
2023-07-31T00:58:33.477Z,22.65
2023-07-31T00:59:33.464Z,22.65
2023-07-31T01:00:33.468Z,22.62
2023-07-31T01:01:33.446Z,22.62
2023-07-31T01:02:33.547Z,22.60
2023-07-31T01:03:33.423Z,22.60
2023-07-31T01:04:33.394Z,22.60
2023-07-31T01:05:33.395Z,22.59
2023-07-31T01:06:33.391Z,22.59
2023-07-31T01:07:33.343Z,22.59
2023-07-31T01:08:33.337Z,22.56
2023-07-31T01:09:33.314Z,22.54
2023-07-31T01:10:33.334Z,22.53
2023-07-31T01:11:33.302Z,22.47
2023-07-31T01:12:33.479Z,22.44
2023-07-31T01:13:33.262Z,22.44
2023-07-31T01:14:33.304Z,22.38
2023-07-31T01:15:33.255Z,22.39
2023-07-31T01:16:33.302Z,22.35
2023-07-31T01:17:33.284Z,22.35
2023-07-31T01:18:33.196Z,22.32
2023-07-31T01:19:33.189Z,22.31
2023-07-31T01:20:33.243Z,22.27
2023-07-31T01:21:33.178Z,22.27
2023-07-31T01:22:34.017Z,22.29
2023-07-31T01:23:33.132Z,22.23
2023-07-31T01:24:33.133Z,22.19
2023-07-31T01:25:33.112Z,22.17
2023-07-31T01:26:33.137Z,22.17
2023-07-31T01:27:33.086Z,22.16
2023-07-31T01:28:33.158Z,22.12
2023-07-31T01:29:33.058Z,22.10
2023-07-31T01:30:33.050Z,22.09
2023-07-31T01:31:33.038Z,22.04
2023-07-31T01:32:33.052Z,22.02
2023-07-31T01:33:32.997Z,22.01
2023-07-31T01:34:32.993Z,21.98
2023-07-31T01:35:32.975Z,21.95
2023-07-31T01:36:32.969Z,21.92
2023-07-31T01:37:32.968Z,21.92
2023-07-31T01:38:32.936Z,21.91
2023-07-31T01:39:32.927Z,21.90
2023-07-31T01:40:32.909Z,21.91
2023-07-31T01:41:32.978Z,21.91
2023-07-31T01:42:32.893Z,21.92
2023-07-31T01:43:32.865Z,21.91
2023-07-31T01:44:32.852Z,21.94
2023-07-31T01:45:32.831Z,21.94
2023-07-31T01:46:32.907Z,21.99
2023-07-31T01:47:32.938Z,22.02
2023-07-31T01:48:33.517Z,22.02
2023-07-31T01:49:32.789Z,22.04
2023-07-31T01:50:32.796Z,22.04
2023-07-31T01:51:32.768Z,22.04
2023-07-31T01:52:32.757Z,22.02
2023-07-31T01:53:32.736Z,22.06
2023-07-31T01:54:32.728Z,22.02
2023-07-31T01:55:32.724Z,22.01
2023-07-31T01:56:32.697Z,22.04
2023-07-31T01:57:32.666Z,22.01
2023-07-31T01:58:32.676Z,22.04
2023-07-31T01:59:32.671Z,22.02
2023-07-31T02:00:32.663Z,22.04
2023-07-31T02:01:32.664Z,22.06
2023-07-31T02:02:32.676Z,22.07
2023-07-31T02:03:32.761Z,22.09
2023-07-31T02:04:32.628Z,22.09
2023-07-31T02:05:32.619Z,22.06
2023-07-31T02:06:32.590Z,22.04
2023-07-31T02:07:32.541Z,22.02
2023-07-31T02:08:32.548Z,22.01
2023-07-31T02:09:32.522Z,22.02
2023-07-31T02:10:32.549Z,22.02
2023-07-31T02:11:32.504Z,21.99
2023-07-31T02:12:33.773Z,22.01
2023-07-31T02:13:32.476Z,22.02
2023-07-31T02:14:32.475Z,21.98
2023-07-31T02:15:32.434Z,22.04
2023-07-31T02:16:32.440Z,22.01
2023-07-31T02:17:32.432Z,22.01
2023-07-31T02:18:32.431Z,22.02
2023-07-31T02:19:32.389Z,22.06
2023-07-31T02:20:32.376Z,22.06
2023-07-31T02:21:32.357Z,22.10
2023-07-31T02:22:32.352Z,22.13
2023-07-31T02:23:32.351Z,22.17
2023-07-31T02:24:32.324Z,22.14
2023-07-31T02:25:32.344Z,22.19
2023-07-31T02:26:32.322Z,22.19
2023-07-31T02:27:32.275Z,22.22
2023-07-31T02:28:32.320Z,22.20
2023-07-31T02:29:32.270Z,22.27
2023-07-31T02:30:32.238Z,22.23
2023-07-31T02:31:32.320Z,22.27
2023-07-31T02:32:32.258Z,22.25
2023-07-31T02:33:32.199Z,22.25
2023-07-31T02:34:32.211Z,22.25
2023-07-31T02:35:32.178Z,22.23
2023-07-31T02:36:32.179Z,22.25
2023-07-31T02:37:32.139Z,22.20
2023-07-31T02:38:32.177Z,22.20
2023-07-31T02:39:32.134Z,22.17
2023-07-31T02:40:32.112Z,22.19
2023-07-31T02:41:32.137Z,22.14
2023-07-31T02:42:32.997Z,22.16
2023-07-31T02:43:32.056Z,22.13
2023-07-31T02:44:32.091Z,22.16
2023-07-31T02:45:32.048Z,22.13
2023-07-31T02:46:32.048Z,22.12
2023-07-31T02:47:32.039Z,22.13
2023-07-31T02:48:32.014Z,22.07
2023-07-31T02:49:31.971Z,22.07
2023-07-31T02:50:31.995Z,22.09
2023-07-31T02:51:31.958Z,22.06
2023-07-31T02:52:32.025Z,22.02
2023-07-31T02:53:31.934Z,22.01
2023-07-31T02:54:31.929Z,21.99
2023-07-31T02:55:31.898Z,21.95
2023-07-31T02:56:31.949Z,21.94
2023-07-31T02:57:31.869Z,21.91
2023-07-31T02:58:31.879Z,21.91
2023-07-31T02:59:31.854Z,21.88
2023-07-31T03:00:31.854Z,21.85
2023-07-31T03:01:31.875Z,21.81
2023-07-31T03:02:31.891Z,21.79
2023-07-31T03:03:31.898Z,21.79
2023-07-31T03:04:31.787Z,21.76
2023-07-31T03:05:31.764Z,21.76
2023-07-31T03:06:31.807Z,21.74
2023-07-31T03:07:31.737Z,21.74
2023-07-31T03:08:31.750Z,21.74
2023-07-31T03:09:31.717Z,21.74
2023-07-31T03:10:31.756Z,21.71
2023-07-31T03:11:31.682Z,21.71
2023-07-31T03:12:31.673Z,21.74
2023-07-31T03:13:31.682Z,21.72
2023-07-31T03:14:31.660Z,21.72
2023-07-31T03:15:31.675Z,21.71
2023-07-31T03:16:31.621Z,21.67
2023-07-31T03:17:31.668Z,21.67
2023-07-31T03:18:31.607Z,21.67
2023-07-31T03:19:31.597Z,21.67
2023-07-31T03:20:31.611Z,21.66
2023-07-31T03:21:31.550Z,21.64
2023-07-31T03:22:31.548Z,21.66
2023-07-31T03:23:31.545Z,21.60
2023-07-31T03:24:31.520Z,21.59
2023-07-31T03:25:31.510Z,21.54
2023-07-31T03:26:31.523Z,21.54
2023-07-31T03:27:31.482Z,21.51
2023-07-31T03:28:31.575Z,21.50
2023-07-31T03:29:31.445Z,21.50
2023-07-31T03:30:31.456Z,21.46
2023-07-31T03:31:31.476Z,21.48
2023-07-31T03:32:31.513Z,21.48
2023-07-31T03:33:31.401Z,21.45
2023-07-31T03:34:31.413Z,21.44
2023-07-31T03:35:31.365Z,21.41
2023-07-31T03:36:31.367Z,21.39
2023-07-31T03:37:31.362Z,21.44
2023-07-31T03:38:31.345Z,21.42
2023-07-31T03:39:31.324Z,21.38
2023-07-31T03:40:31.302Z,21.36
2023-07-31T03:41:31.304Z,21.36
2023-07-31T03:42:31.283Z,21.35
2023-07-31T03:43:31.293Z,21.36
2023-07-31T03:44:31.254Z,21.35
2023-07-31T03:45:31.243Z,21.35
2023-07-31T03:46:31.257Z,21.34
2023-07-31T03:47:31.562Z,21.27
2023-07-31T03:48:31.229Z,21.30
2023-07-31T03:49:31.218Z,21.29
2023-07-31T03:50:31.168Z,21.30
2023-07-31T03:51:31.203Z,21.27
2023-07-31T03:52:31.195Z,21.29
2023-07-31T03:53:31.134Z,21.26
2023-07-31T03:54:31.128Z,21.24
2023-07-31T03:55:31.096Z,21.26
2023-07-31T03:56:32.264Z,21.24
2023-07-31T03:57:31.086Z,21.26
2023-07-31T03:58:31.089Z,21.24
2023-07-31T03:59:31.051Z,21.27
2023-07-31T04:00:31.044Z,21.23
2023-07-31T04:01:31.031Z,21.24
2023-07-31T04:02:31.093Z,21.26
2023-07-31T04:03:30.990Z,21.23
2023-07-31T04:04:32.504Z,21.23
2023-07-31T04:05:31.098Z,21.24
2023-07-31T04:06:30.974Z,21.24
2023-07-31T04:07:30.947Z,21.24
2023-07-31T04:08:30.963Z,21.24
2023-07-31T04:09:30.935Z,21.27
2023-07-31T04:10:30.923Z,21.21
2023-07-31T04:11:30.929Z,21.24
2023-07-31T04:12:30.896Z,21.26
2023-07-31T04:13:30.859Z,21.24
2023-07-31T04:14:30.873Z,21.24
2023-07-31T04:15:30.843Z,21.23
2023-07-31T04:16:30.874Z,21.29
2023-07-31T04:17:30.824Z,21.29
2023-07-31T04:18:30.819Z,21.34
2023-07-31T04:19:30.804Z,21.34
2023-07-31T04:20:30.780Z,21.32
2023-07-31T04:21:30.756Z,21.34
2023-07-31T04:22:30.784Z,21.39
2023-07-31T04:23:31.338Z,21.35
2023-07-31T04:24:30.742Z,21.39
2023-07-31T04:25:30.732Z,21.39
2023-07-31T04:26:30.728Z,21.41
2023-07-31T04:27:30.686Z,21.48
2023-07-31T04:28:30.736Z,21.50
2023-07-31T04:29:30.642Z,21.51
2023-07-31T04:30:30.679Z,21.51
2023-07-31T04:31:30.736Z,21.54
2023-07-31T04:32:30.665Z,21.57
2023-07-31T04:33:30.598Z,21.61
2023-07-31T04:34:30.601Z,21.64
2023-07-31T04:35:30.577Z,21.69
2023-07-31T04:36:30.591Z,21.72
2023-07-31T04:37:30.555Z,21.76
2023-07-31T04:38:30.565Z,21.81
2023-07-31T04:39:30.535Z,21.90
2023-07-31T04:40:30.525Z,21.90
2023-07-31T04:41:30.486Z,21.94
2023-07-31T04:42:30.522Z,21.95
2023-07-31T04:43:30.510Z,21.99
2023-07-31T04:44:30.456Z,21.99
2023-07-31T04:45:30.448Z,22.07
2023-07-31T04:46:30.517Z,22.07
2023-07-31T04:47:30.472Z,22.09
2023-07-31T04:48:30.439Z,22.13
2023-07-31T04:49:30.419Z,22.12
2023-07-31T04:50:30.396Z,22.13
2023-07-31T04:51:30.379Z,22.17
2023-07-31T04:52:30.368Z,22.19
2023-07-31T04:53:30.367Z,22.19
2023-07-31T04:54:30.338Z,22.23
2023-07-31T04:55:30.425Z,22.25
2023-07-31T04:56:30.300Z,22.31
2023-07-31T04:57:30.298Z,22.35
2023-07-31T04:58:30.265Z,22.38
2023-07-31T04:59:30.276Z,22.46
2023-07-31T05:00:30.251Z,22.47
2023-07-31T05:01:30.936Z,22.50
2023-07-31T05:02:30.250Z,22.53
2023-07-31T05:03:30.247Z,22.56
2023-07-31T05:04:30.175Z,22.62
2023-07-31T05:05:30.194Z,22.67
2023-07-31T05:06:30.182Z,22.71
2023-07-31T05:07:30.162Z,22.74
2023-07-31T05:08:30.132Z,22.80
2023-07-31T05:09:30.131Z,22.82
2023-07-31T05:10:30.119Z,22.89
2023-07-31T05:11:30.155Z,22.92
2023-07-31T05:12:30.094Z,22.96
2023-07-31T05:13:30.071Z,23.02
2023-07-31T05:14:30.057Z,23.05
2023-07-31T05:15:30.067Z,23.14
2023-07-31T05:16:30.095Z,23.17
2023-07-31T05:17:30.047Z,23.24
2023-07-31T05:18:30.011Z,23.32
2023-07-31T05:19:30.010Z,23.40
2023-07-31T05:20:30.953Z,23.49
2023-07-31T05:21:30.359Z,23.53
2023-07-31T05:22:29.941Z,23.62
2023-07-31T05:23:29.944Z,23.68
2023-07-31T05:24:29.905Z,23.77
2023-07-31T05:25:29.927Z,23.89
2023-07-31T05:26:29.897Z,23.95
2023-07-31T05:27:29.897Z,24.05
2023-07-31T05:28:29.948Z,24.12
2023-07-31T05:29:29.870Z,24.19
2023-07-31T05:30:29.836Z,24.27
2023-07-31T05:31:29.846Z,24.37
2023-07-31T05:32:29.863Z,24.45
2023-07-31T05:33:29.873Z,24.52
2023-07-31T05:34:29.791Z,24.59
2023-07-31T05:35:29.772Z,24.64
2023-07-31T05:36:29.791Z,24.75
2023-07-31T05:37:29.767Z,24.80
2023-07-31T05:38:29.757Z,24.90
2023-07-31T05:39:29.809Z,24.97
2023-07-31T05:40:29.722Z,25.02
2023-07-31T05:41:29.719Z,25.09
2023-07-31T05:42:29.680Z,25.13
2023-07-31T05:43:29.678Z,25.20
2023-07-31T05:44:29.648Z,25.30
2023-07-31T05:45:29.656Z,25.35
2023-07-31T05:46:29.673Z,25.43
2023-07-31T05:47:29.626Z,25.49
2023-07-31T05:48:29.614Z,25.54
2023-07-31T05:49:29.600Z,25.61
2023-07-31T05:50:29.568Z,25.67
2023-07-31T05:51:29.576Z,25.72
2023-07-31T05:52:29.744Z,25.87
2023-07-31T05:53:29.555Z,25.94
2023-07-31T05:54:29.533Z,25.97
2023-07-31T05:55:29.526Z,25.99
2023-07-31T05:56:29.482Z,25.99
2023-07-31T05:57:29.508Z,26.02
2023-07-31T05:58:29.468Z,26.06
2023-07-31T05:59:29.473Z,26.04
2023-07-31T06:00:29.601Z,26.01
2023-07-31T06:01:29.483Z,26.02
2023-07-31T06:02:29.541Z,26.06
2023-07-31T06:03:29.436Z,26.06
2023-07-31T06:04:29.494Z,26.05
2023-07-31T06:05:29.401Z,26.08
2023-07-31T06:06:29.416Z,26.08
2023-07-31T06:07:29.369Z,26.08
2023-07-31T06:08:29.325Z,26.09
2023-07-31T06:09:29.349Z,26.15
2023-07-31T06:10:29.312Z,26.15
2023-07-31T06:11:29.295Z,26.20
2023-07-31T06:12:29.318Z,26.27
2023-07-31T06:13:29.270Z,26.31
2023-07-31T06:14:29.241Z,26.29
2023-07-31T06:15:29.244Z,26.32
2023-07-31T06:16:29.276Z,26.31
2023-07-31T06:17:29.261Z,26.32
2023-07-31T06:18:29.199Z,26.36
2023-07-31T06:19:29.216Z,26.37
2023-07-31T06:20:29.172Z,26.36
2023-07-31T06:21:29.196Z,26.42
2023-07-31T06:22:29.161Z,26.40
2023-07-31T06:23:29.147Z,26.42
2023-07-31T06:24:29.133Z,26.46
2023-07-31T06:25:29.137Z,26.46
2023-07-31T06:26:29.125Z,26.47
2023-07-31T06:27:29.101Z,26.52
2023-07-31T06:28:29.116Z,26.49
2023-07-31T06:29:29.058Z,26.55
2023-07-31T06:30:29.047Z,26.57
2023-07-31T06:31:29.125Z,26.55
2023-07-31T06:32:29.157Z,26.57
2023-07-31T06:33:29.016Z,26.59
2023-07-31T06:34:28.983Z,26.62
2023-07-31T06:35:28.990Z,26.65
2023-07-31T06:36:28.989Z,26.69
2023-07-31T06:37:28.957Z,26.77
2023-07-31T06:38:28.932Z,26.83
2023-07-31T06:39:28.920Z,26.87
2023-07-31T06:40:28.902Z,26.94
2023-07-31T06:41:28.910Z,26.99
2023-07-31T06:42:28.908Z,27.05
2023-07-31T06:43:29.711Z,27.16
2023-07-31T06:44:28.861Z,27.26
2023-07-31T06:45:28.887Z,27.38
2023-07-31T06:46:28.839Z,27.48
2023-07-31T06:47:28.875Z,27.59
2023-07-31T06:48:28.815Z,27.73
2023-07-31T06:49:28.797Z,27.85
2023-07-31T06:50:28.782Z,27.95
2023-07-31T06:51:28.789Z,28.03
2023-07-31T06:52:28.746Z,28.17
2023-07-31T06:53:28.767Z,28.36
2023-07-31T06:54:28.721Z,28.60
2023-07-31T06:55:28.727Z,29.15
2023-07-31T06:56:28.700Z,29.72
2023-07-31T06:57:28.714Z,30.02
2023-07-31T06:58:28.711Z,29.86
2023-07-31T06:59:28.679Z,29.75
2023-07-31T07:00:28.670Z,29.70
2023-07-31T07:01:28.703Z,29.68
2023-07-31T07:02:28.723Z,29.75
2023-07-31T07:03:28.767Z,30.00
2023-07-31T07:04:28.714Z,30.31
2023-07-31T07:05:28.932Z,30.19
2023-07-31T07:06:28.722Z,30.02
2023-07-31T07:07:28.856Z,29.94
2023-07-31T07:08:28.657Z,29.97
2023-07-31T07:09:28.610Z,30.05
2023-07-31T07:10:28.630Z,30.12
2023-07-31T07:11:28.522Z,30.18
2023-07-31T07:12:28.517Z,30.24
2023-07-31T07:13:28.483Z,30.30
2023-07-31T07:14:28.453Z,30.34
2023-07-31T07:15:28.457Z,30.46
2023-07-31T07:16:28.467Z,30.50
2023-07-31T07:17:28.485Z,30.53
2023-07-31T07:18:28.408Z,30.52
2023-07-31T07:19:28.426Z,30.50
2023-07-31T07:20:28.386Z,30.45
2023-07-31T07:21:28.391Z,30.38
2023-07-31T07:22:28.355Z,30.33
2023-07-31T07:23:28.361Z,30.24
2023-07-31T07:24:28.328Z,30.24
2023-07-31T07:25:28.338Z,30.19
2023-07-31T07:26:28.313Z,30.19
2023-07-31T07:27:28.288Z,30.21
2023-07-31T07:28:28.307Z,30.18
2023-07-31T07:29:28.275Z,30.11
2023-07-31T07:30:28.243Z,30.09
2023-07-31T07:31:28.362Z,30.00
2023-07-31T07:32:28.272Z,29.90
2023-07-31T07:33:28.229Z,29.74
2023-07-31T07:34:28.215Z,29.56
2023-07-31T07:35:28.205Z,29.43
2023-07-31T07:36:28.168Z,29.31
2023-07-31T07:37:28.154Z,29.22
2023-07-31T07:38:28.188Z,29.08
2023-07-31T07:39:28.136Z,29.00
2023-07-31T07:40:28.112Z,28.91
2023-07-31T07:41:28.122Z,28.91
2023-07-31T07:42:28.092Z,29.00
2023-07-31T07:43:28.097Z,28.93
2023-07-31T07:44:28.077Z,28.81
2023-07-31T07:45:28.145Z,28.78
2023-07-31T07:46:28.080Z,28.78
2023-07-31T07:47:29.408Z,28.72
2023-07-31T07:48:28.182Z,28.73
2023-07-31T07:49:28.272Z,28.84
2023-07-31T07:50:28.489Z,29.03
2023-07-31T07:51:27.973Z,29.23
2023-07-31T07:52:27.955Z,29.47
2023-07-31T07:53:27.973Z,29.75
2023-07-31T07:54:27.973Z,29.93
2023-07-31T07:55:27.949Z,30.14
2023-07-31T07:56:27.939Z,30.29
2023-07-31T07:57:27.896Z,30.49
2023-07-31T07:58:27.890Z,30.65
2023-07-31T07:59:27.901Z,30.68
2023-07-31T08:00:27.895Z,30.75
2023-07-31T08:01:27.852Z,30.86
2023-07-31T08:02:27.891Z,31.04
2023-07-31T08:03:27.915Z,31.18
2023-07-31T08:04:27.789Z,31.28
2023-07-31T08:05:27.804Z,31.40
2023-07-31T08:06:27.775Z,31.60
2023-07-31T08:07:27.770Z,31.79
2023-07-31T08:08:27.758Z,31.96
2023-07-31T08:09:27.735Z,32.17
2023-07-31T08:10:27.713Z,32.47
2023-07-31T08:11:27.706Z,32.74
2023-07-31T08:12:27.715Z,32.99
2023-07-31T08:13:27.689Z,33.37
2023-07-31T08:14:27.660Z,33.34
2023-07-31T08:15:27.675Z,33.27
2023-07-31T08:16:27.688Z,33.42
2023-07-31T08:17:27.687Z,33.43
2023-07-31T08:18:27.712Z,33.27
2023-07-31T08:19:27.722Z,33.39
2023-07-31T08:20:27.619Z,33.53
2023-07-31T08:21:27.583Z,33.95
2023-07-31T08:22:27.558Z,34.17
2023-07-31T08:23:27.569Z,34.46
2023-07-31T08:24:27.542Z,34.58
2023-07-31T08:25:27.558Z,34.84
2023-07-31T08:26:27.519Z,36.06
2023-07-31T08:27:27.538Z,37.58
2023-07-31T08:28:27.500Z,39.49
2023-07-31T08:29:27.479Z,41.52
2023-07-31T08:30:27.481Z,42.87
2023-07-31T08:31:27.475Z,42.03
2023-07-31T08:32:27.483Z,40.49
2023-07-31T08:33:27.427Z,39.24
2023-07-31T08:34:27.405Z,38.48
2023-07-31T08:35:27.410Z,38.04
2023-07-31T08:36:30.351Z,37.78
2023-07-31T08:37:27.434Z,37.74
2023-07-31T08:38:27.355Z,38.15
2023-07-31T08:39:27.340Z,38.26
2023-07-31T08:40:27.325Z,38.49
2023-07-31T08:41:27.317Z,38.58
2023-07-31T08:42:29.343Z,38.63
2023-07-31T08:43:27.306Z,39.46
2023-07-31T08:44:27.278Z,40.30
2023-07-31T08:45:27.284Z,40.24
2023-07-31T08:46:27.298Z,40.15
2023-07-31T08:47:27.293Z,41.02
2023-07-31T08:48:27.281Z,42.97
2023-07-31T08:49:27.233Z,46.46
2023-07-31T08:50:27.218Z,49.83
2023-07-31T08:51:27.200Z,52.46
2023-07-31T08:52:27.212Z,54.55
2023-07-31T08:53:27.191Z,56.28
2023-07-31T08:54:27.184Z,57.75
2023-07-31T08:55:27.153Z,59.00
2023-07-31T08:56:27.135Z,60.09
2023-07-31T08:57:27.156Z,61.10
2023-07-31T08:58:27.125Z,62.03
2023-07-31T08:59:27.115Z,62.92
2023-07-31T09:00:27.077Z,63.73
2023-07-31T09:01:27.123Z,64.50
2023-07-31T09:02:27.117Z,65.16
2023-07-31T09:03:27.202Z,65.76
2023-07-31T09:04:27.038Z,66.25
2023-07-31T09:05:27.003Z,66.73
2023-07-31T09:06:27.006Z,67.11
2023-07-31T09:07:27.049Z,67.59
2023-07-31T09:08:26.987Z,67.98
2023-07-31T09:09:27.036Z,68.37
2023-07-31T09:10:26.947Z,68.71
2023-07-31T09:11:26.945Z,69.04
2023-07-31T09:12:26.938Z,69.42
2023-07-31T09:13:26.925Z,69.72
2023-07-31T09:14:26.928Z,70.02
2023-07-31T09:15:36.807Z,70.35
2023-07-31T09:16:26.908Z,70.72
2023-07-31T09:17:26.997Z,71.02
2023-07-31T09:18:26.856Z,71.35
2023-07-31T09:19:26.859Z,71.67
2023-07-31T09:20:26.840Z,71.96
2023-07-31T09:21:26.899Z,72.18
2023-07-31T09:22:26.828Z,72.42
2023-07-31T09:23:26.792Z,72.66
2023-07-31T09:24:26.816Z,72.80
2023-07-31T09:25:26.797Z,72.88
2023-07-31T09:26:26.827Z,72.89
2023-07-31T09:27:26.759Z,72.97
2023-07-31T09:28:28.837Z,73.17
2023-07-31T09:29:26.758Z,73.28
2023-07-31T09:30:26.824Z,73.42
2023-07-31T09:31:26.737Z,73.58
2023-07-31T09:32:26.739Z,73.84
2023-07-31T09:33:26.719Z,73.88
2023-07-31T09:34:26.694Z,73.86
2023-07-31T09:35:26.668Z,73.91
2023-07-31T09:36:27.318Z,74.03
2023-07-31T09:37:26.635Z,74.39
2023-07-31T09:38:26.659Z,74.48
2023-07-31T09:39:26.621Z,74.42
2023-07-31T09:40:26.618Z,74.27
2023-07-31T09:41:26.598Z,73.91
2023-07-31T09:42:26.603Z,73.55
2023-07-31T09:43:26.598Z,73.71
2023-07-31T09:44:26.582Z,73.97
2023-07-31T09:45:32.149Z,74.15
2023-07-31T09:46:26.638Z,73.95
2023-07-31T09:47:27.041Z,73.72
2023-07-31T09:48:26.544Z,74.02
2023-07-31T09:49:26.536Z,73.93
2023-07-31T09:50:26.515Z,74.18
2023-07-31T09:51:26.532Z,74.68
2023-07-31T09:52:26.491Z,74.94
2023-07-31T09:53:26.498Z,75.11
2023-07-31T09:54:26.464Z,75.08
2023-07-31T09:55:26.436Z,75.03
2023-07-31T09:56:26.477Z,75.14
2023-07-31T09:57:26.437Z,74.85
2023-07-31T09:58:26.435Z,74.71
2023-07-31T09:59:26.420Z,75.14
2023-07-31T10:00:26.405Z,75.45
2023-07-31T10:01:26.465Z,75.49
2023-07-31T10:02:26.403Z,75.31
2023-07-31T10:03:26.501Z,75.42
2023-07-31T10:04:26.366Z,75.34
2023-07-31T10:05:26.331Z,75.27
2023-07-31T10:06:26.334Z,75.49
2023-07-31T10:07:26.338Z,75.69
2023-07-31T10:08:26.342Z,75.82
2023-07-31T10:09:26.295Z,75.85
2023-07-31T10:10:27.805Z,75.85
2023-07-31T10:11:26.299Z,75.61
2023-07-31T10:12:26.274Z,74.62
2023-07-31T10:13:26.276Z,73.05
2023-07-31T10:14:26.249Z,73.02
2023-07-31T10:15:26.243Z,73.71
2023-07-31T10:16:26.235Z,74.23
2023-07-31T10:17:26.242Z,74.81
2023-07-31T10:18:26.222Z,75.20
2023-07-31T10:19:26.199Z,75.50
2023-07-31T10:20:26.183Z,75.73
2023-07-31T10:21:26.180Z,75.91
2023-07-31T10:22:26.160Z,75.94
2023-07-31T10:23:26.151Z,75.88
2023-07-31T10:24:26.204Z,75.99
2023-07-31T10:25:26.159Z,75.87
2023-07-31T10:26:26.122Z,75.72
2023-07-31T10:27:26.118Z,75.42
2023-07-31T10:28:26.252Z,75.11
2023-07-31T10:29:26.074Z,74.42
2023-07-31T10:30:26.114Z,73.63
2023-07-31T10:31:26.098Z,73.64
2023-07-31T10:32:26.085Z,73.88
2023-07-31T10:33:26.061Z,74.19
2023-07-31T10:34:26.036Z,74.31
2023-07-31T10:35:26.112Z,74.48
2023-07-31T10:36:26.180Z,74.38
2023-07-31T10:37:26.048Z,71.91
2023-07-31T10:38:26.001Z,69.79
2023-07-31T10:39:26.007Z,67.55
2023-07-31T10:40:25.983Z,64.83
2023-07-31T10:41:25.978Z,62.70
2023-07-31T10:42:25.958Z,60.73
2023-07-31T10:43:25.937Z,58.79
2023-07-31T10:44:25.939Z,57.39
2023-07-31T10:45:25.944Z,57.68
2023-07-31T10:46:25.992Z,60.76
2023-07-31T10:47:25.999Z,62.26
2023-07-31T10:48:25.898Z,59.95
2023-07-31T10:49:25.896Z,59.09
2023-07-31T10:50:25.866Z,60.37
2023-07-31T10:51:25.852Z,59.78
2023-07-31T10:52:27.790Z,58.64
2023-07-31T10:53:25.856Z,60.10
2023-07-31T10:54:25.812Z,62.26
2023-07-31T10:55:25.788Z,63.12
2023-07-31T10:56:25.790Z,60.76
2023-07-31T10:57:25.790Z,58.57
2023-07-31T10:58:25.787Z,56.39
2023-07-31T10:59:25.768Z,54.56
2023-07-31T11:00:25.746Z,53.20
2023-07-31T11:01:25.765Z,52.55
2023-07-31T11:02:25.806Z,52.91
2023-07-31T11:03:25.868Z,53.48
2023-07-31T11:04:25.720Z,55.10
2023-07-31T11:05:25.674Z,56.75
2023-07-31T11:06:25.691Z,58.16
2023-07-31T11:07:25.710Z,57.58
2023-07-31T11:08:25.664Z,56.56
2023-07-31T11:09:25.645Z,55.62
2023-07-31T11:10:25.626Z,54.78
2023-07-31T11:11:25.610Z,54.33
2023-07-31T11:12:25.620Z,54.49
2023-07-31T11:13:25.627Z,56.38
2023-07-31T11:14:25.611Z,56.27
2023-07-31T11:15:25.564Z,54.94
2023-07-31T11:16:25.694Z,54.45
2023-07-31T11:17:25.568Z,54.31
2023-07-31T11:18:25.538Z,54.65
2023-07-31T11:19:25.610Z,53.24
2023-07-31T11:20:25.527Z,51.92
2023-07-31T11:21:25.588Z,51.03
2023-07-31T11:22:25.495Z,50.42
2023-07-31T11:23:25.509Z,49.55
2023-07-31T11:24:25.500Z,48.77
2023-07-31T11:25:25.490Z,48.33
2023-07-31T11:26:25.456Z,49.64
2023-07-31T11:27:25.426Z,52.58
2023-07-31T11:28:25.505Z,57.43
2023-07-31T11:29:25.469Z,60.71
2023-07-31T11:30:25.438Z,63.14
2023-07-31T11:31:25.476Z,64.70
2023-07-31T11:32:25.382Z,65.15
2023-07-31T11:33:25.386Z,65.95
2023-07-31T11:34:25.361Z,65.82
2023-07-31T11:35:25.322Z,67.59
2023-07-31T11:36:25.341Z,68.74
2023-07-31T11:37:25.311Z,69.47
2023-07-31T11:38:25.338Z,69.65
2023-07-31T11:39:25.357Z,68.59
2023-07-31T11:40:29.594Z,68.98
2023-07-31T11:41:25.298Z,69.33
2023-07-31T11:42:25.269Z,70.05
2023-07-31T11:43:25.245Z,69.83
2023-07-31T11:44:27.878Z,69.11
2023-07-31T11:45:25.219Z,69.08
2023-07-31T11:46:25.265Z,69.14
2023-07-31T11:47:25.305Z,69.27
2023-07-31T11:48:25.221Z,68.95
2023-07-31T11:49:25.183Z,67.66
2023-07-31T11:50:25.179Z,66.14
2023-07-31T11:51:25.156Z,63.68
2023-07-31T11:52:25.153Z,60.88
2023-07-31T11:53:25.143Z,58.22
2023-07-31T11:54:25.174Z,55.80
2023-07-31T11:55:25.108Z,53.79
2023-07-31T11:56:25.106Z,52.14
2023-07-31T11:57:25.080Z,50.70
2023-07-31T11:58:25.094Z,49.52
2023-07-31T11:59:25.065Z,48.53
2023-07-31T12:00:25.048Z,47.70
2023-07-31T12:01:25.039Z,46.95
2023-07-31T12:02:25.033Z,46.27
2023-07-31T12:03:25.102Z,45.66
2023-07-31T12:04:25.125Z,45.02
2023-07-31T12:05:25.002Z,44.36
2023-07-31T12:06:24.981Z,43.82
2023-07-31T12:07:24.958Z,43.27
2023-07-31T12:08:24.969Z,42.85
2023-07-31T12:09:24.944Z,42.38
2023-07-31T12:10:24.929Z,42.03
2023-07-31T12:11:24.915Z,41.75
2023-07-31T12:12:24.910Z,41.54
2023-07-31T12:13:24.909Z,41.29
2023-07-31T12:14:24.924Z,41.00
2023-07-31T12:15:24.861Z,40.74
2023-07-31T12:16:24.922Z,40.53
2023-07-31T12:17:24.822Z,40.43
2023-07-31T12:18:24.845Z,40.21
2023-07-31T12:19:24.868Z,39.89
2023-07-31T12:20:24.804Z,39.61
2023-07-31T12:21:24.793Z,39.24
2023-07-31T12:22:24.790Z,38.85
2023-07-31T12:23:24.776Z,38.49
2023-07-31T12:24:24.762Z,38.12
2023-07-31T12:25:24.730Z,37.95
2023-07-31T12:26:24.733Z,37.81
2023-07-31T12:27:24.708Z,37.70
2023-07-31T12:28:24.754Z,37.55
2023-07-31T12:29:24.691Z,37.43
2023-07-31T12:30:24.672Z,37.35
2023-07-31T12:31:24.896Z,37.38
2023-07-31T12:32:24.740Z,37.36
2023-07-31T12:33:24.644Z,37.33
2023-07-31T12:34:24.652Z,37.26
2023-07-31T12:35:24.616Z,37.07
2023-07-31T12:36:24.618Z,36.94
2023-07-31T12:37:24.576Z,36.75
2023-07-31T12:38:24.576Z,36.52
2023-07-31T12:39:24.556Z,36.39
2023-07-31T12:40:32.498Z,36.23
2023-07-31T12:41:24.548Z,36.15
2023-07-31T12:42:24.536Z,35.95
2023-07-31T12:43:24.505Z,35.82
2023-07-31T12:44:24.504Z,35.72
2023-07-31T12:45:24.528Z,35.52
2023-07-31T12:46:24.508Z,35.42
2023-07-31T12:47:24.522Z,35.36
2023-07-31T12:48:24.466Z,35.23
2023-07-31T12:49:24.431Z,35.07
2023-07-31T12:50:24.448Z,34.96
2023-07-31T12:51:24.397Z,34.86
2023-07-31T12:52:24.408Z,34.72